Terminal Aerodrome Forecast
Issued by NWS

Home | Current Version | Previous Version | Text Only | Print | Product List | Glossary On
Versions: 1 2 3 4 5 6 7 8 9 10 11 12 13 14 15
000
FTUS45 KCYS 220807 AAA
TAFLAR
TAF AMD
KLAR 220807Z 2208/2306 23020G27KT P6SM VCSH SCT030 BKN050
      TEMPO 2208/2212 2SM -SN BKN030
     FM221600 27015G25KT P6SM VCSH SCT015 OVC040
     FM230100 12010KT 2SM -SN SCT010 OVC020=

USA.gov is the U.S. government's official web portal to all federal, state and local government web resources and services.